Chapais, Canada
Current Conditions -  °F | °C
As of 3:31 AM on Sunday 26 Oct 2014 (Local Time) from CYNM Reporting Station
Haze Haze  
Wind Chill: 31°   Ceiling: 400
Heat Index: 37°   Visibility: 5mi
Dew Point: 37°   Wind: 8mph
Humidity: 100%   Direction: 270°W
Pressure: 29.37"   Gusts: NA
Location:  49.78°N, 74.85°W
Report Text: CYNM 260731Z AUTO 27007KT 5SM BR BKN004 BKN008 OVC013 03/03 A2937 RMK ICG MISG SLP954
Loading
Personal Weather Stations






























Interactive Weather Map
Tropical Storm Tracking
New forecast layout! Learn more

10-Day Weather Forecast

Advertisements
Track Severe Weather on mobile